Time;durP1;ratioP1;P1;durP2;ratioP2;P2;SDS_P1;SDS_P2;PMS_P1;PMS_P2;Temp;Humidity;BMP_temperature;BMP_pressure;BME280_temperature;BME280_humidity;BME280_pressure;Samples;Min_cycle;Max_cycle;Signal;HPM_P1;HPM_P2
2021/11/04 00:01:41;;;;;;;32.23;11.30;;;;;;;-145.18;100.00;60484.78;5056022;28;20138;-69
2021/11/04 00:04:07;;;;;;;33.83;11.43;;;;;;;-145.18;100.00;60484.78;5048056;28;20040;-74
2021/11/04 00:06:33;;;;;;;32.43;11.27;;;;;;;-145.18;100.00;60484.78;5060566;28;20211;-69
2021/11/04 00:08:58;;;;;;;34.93;11.57;;;;;;;-145.18;100.00;60484.78;5054499;28;20078;-69
2021/11/04 00:11:23;;;;;;;34.17;11.33;;;;;;;-145.18;100.00;60484.78;5060255;28;20500;-69
2021/11/04 00:13:53;;;;;;;32.00;9.90;;;;;;;-145.18;100.00;60484.78;5060541;28;20059;-69
2021/11/04 00:16:19;;;;;;;32.00;10.10;;;;;;;-145.18;100.00;60484.78;5060755;28;20204;-69
2021/11/04 00:18:44;;;;;;;29.87;10.70;;;;;;;-145.18;100.00;60484.78;5057748;28;20497;-69
2021/11/04 00:21:10;;;;;;;32.00;10.43;;;;;;;-145.18;100.00;60484.78;5060217;28;20184;-69
2021/11/04 00:23:35;;;;;;;27.10;9.97;;;;;;;-145.18;100.00;60484.78;5059209;28;20055;-70
2021/11/04 00:26:02;;;;;;;27.20;9.83;;;;;;;-145.18;100.00;60484.78;5058711;28;20412;-69
2021/11/04 00:28:27;;;;;;;24.47;9.07;;;;;;;-145.18;100.00;60484.78;5057578;28;20113;-70
2021/11/04 00:30:53;;;;;;;30.83;10.07;;;;;;;-145.18;100.00;60484.78;5059617;28;20025;-70
2021/11/04 00:33:18;;;;;;;27.60;9.70;;;;;;;-145.18;100.00;60484.78;5059447;28;20281;-70
2021/11/04 00:35:43;;;;;;;25.13;9.67;;;;;;;-145.18;100.00;60484.78;5059674;28;20488;-71
2021/11/04 00:38:09;;;;;;;28.27;9.43;;;;;;;-145.18;100.00;60484.78;5057050;28;20608;-70
2021/11/04 00:40:35;;;;;;;25.73;8.37;;;;;;;-145.18;100.00;60484.78;5057270;28;20020;-69
2021/11/04 00:43:00;;;;;;;26.13;8.50;;;;;;;-145.18;100.00;60484.78;5058712;28;20443;-70
2021/11/04 00:45:26;;;;;;;25.67;8.30;;;;;;;-145.18;100.00;60484.78;5059530;28;20028;-70
2021/11/04 00:47:52;;;;;;;22.87;7.53;;;;;;;-145.18;100.00;60484.78;5058225;28;20136;-70
2021/11/04 00:50:19;;;;;;;26.70;8.63;;;;;;;-145.18;100.00;60484.78;5053513;28;20093;-70
2021/11/04 00:52:45;;;;;;;25.20;8.00;;;;;;;-145.18;100.00;60484.78;5059292;28;20548;-69
2021/11/04 00:55:11;;;;;;;23.07;8.13;;;;;;;-145.18;100.00;60484.78;5059110;28;20032;-69
2021/11/04 00:57:37;;;;;;;24.27;7.60;;;;;;;-145.18;100.00;60484.78;5058387;28;20364;-69
2021/11/04 01:00:06;;;;;;;29.23;8.07;;;;;;;-145.18;100.00;60484.78;5052889;28;20744;-69
2021/11/04 01:02:32;;;;;;;26.63;8.13;;;;;;;-145.18;100.00;60484.78;5059343;28;20028;-69
2021/11/04 01:04:57;;;;;;;24.93;7.63;;;;;;;-145.18;100.00;60484.78;5054490;28;20520;-69
2021/11/04 01:07:23;;;;;;;26.70;8.90;;;;;;;-145.18;100.00;60484.78;5058050;28;20037;-69
2021/11/04 01:09:48;;;;;;;29.43;8.07;;;;;;;-145.18;100.00;60484.78;5054946;28;20024;-69
2021/11/04 01:12:15;;;;;;;29.87;8.50;;;;;;;-145.18;100.00;60484.78;5049790;28;20036;-69
2021/11/04 01:14:42;;;;;;;24.07;7.80;;;;;;;-145.18;100.00;60484.78;5058248;28;20464;-70
2021/11/04 01:17:08;;;;;;;23.57;7.53;;;;;;;-145.18;100.00;60484.78;5040686;28;20024;-70
2021/11/04 01:19:33;;;;;;;24.67;7.77;;;;;;;-145.18;100.00;60484.78;5057449;28;20017;-70
2021/11/04 01:21:59;;;;;;;26.57;7.33;;;;;;;-145.18;100.00;60484.78;5058517;28;20035;-70
2021/11/04 01:24:25;;;;;;;24.07;7.43;;;;;;;-145.18;100.00;60484.78;5058336;28;20028;-70
2021/11/04 01:26:50;;;;;;;25.70;8.20;;;;;;;-145.18;100.00;60484.78;5058325;28;20052;-70
2021/11/04 01:29:16;;;;;;;25.87;7.60;;;;;;;-145.18;100.00;60484.78;5050119;28;20095;-70
2021/11/04 01:31:42;;;;;;;23.47;7.83;;;;;;;-145.18;100.00;60484.78;5052141;28;20017;-70
2021/11/04 01:34:07;;;;;;;28.40;8.60;;;;;;;-145.18;100.00;60484.78;5058894;28;20036;-70
2021/11/04 01:36:32;;;;;;;27.67;8.13;;;;;;;-145.18;100.00;60484.78;5057540;28;20034;-70
2021/11/04 01:38:58;;;;;;;29.27;8.03;;;;;;;-145.18;100.00;60484.78;5055174;28;20036;-70
2021/11/04 01:41:23;;;;;;;28.20;7.93;;;;;;;-145.18;100.00;60484.78;5058174;28;20020;-70
2021/11/04 01:43:49;;;;;;;24.60;8.20;;;;;;;-145.18;100.00;60484.78;5057384;28;20134;-70
2021/11/04 01:46:19;;;;;;;23.73;7.33;;;;;;;-145.18;100.00;60484.78;5057878;28;20193;-70
2021/11/04 01:48:45;;;;;;;22.73;7.27;;;;;;;-145.18;100.00;60484.78;5035619;28;20024;-69
2021/11/04 01:51:10;;;;;;;28.27;7.53;;;;;;;-145.18;100.00;60484.78;5052157;28;20027;-69
2021/11/04 01:53:36;;;;;;;27.43;7.90;;;;;;;-145.18;100.00;60484.78;5058768;28;20028;-69
2021/11/04 01:56:02;;;;;;;31.13;8.87;;;;;;;-145.18;100.00;60484.78;5058101;28;20033;-69
2021/11/04 01:58:27;;;;;;;26.03;8.53;;;;;;;-145.18;100.00;60484.78;5058120;28;20025;-69
2021/11/04 02:00:54;;;;;;;25.93;8.53;;;;;;;-145.18;100.00;60484.78;5055750;28;20056;-69
2021/11/04 02:03:29;;;;;;;24.20;7.70;;;;;;;-145.18;100.00;60484.78;5055966;28;20059;-69
2021/11/04 02:06:03;;;;;;;25.07;7.40;;;;;;;-145.18;100.00;60484.78;5057954;28;20068;-69
2021/11/04 02:08:56;;;;;;;22.87;8.20;;;;;;;-145.18;100.00;60484.78;5058949;28;20620;-69
2021/11/04 02:11:32;;;;;;;23.40;8.15;;;;;;;-145.18;100.00;60484.78;5013779;28;20030;-69
2021/11/04 02:14:01;;;;;;;25.87;8.20;;;;;;;-145.18;100.00;60484.78;5012998;28;20156;-69
2021/11/04 02:16:29;;;;;;;27.27;8.57;;;;;;;-145.18;100.00;60484.78;5014799;28;20614;-69
2021/11/04 02:18:59;;;;;;;26.33;8.10;;;;;;;-145.18;100.00;60484.78;5014523;28;20176;-69
2021/11/04 02:21:44;;;;;;;24.10;8.30;;;;;;;-145.18;100.00;60484.78;5008894;28;20429;-69
2021/11/04 02:24:23;;;;;;;25.13;8.93;;;;;;;-145.18;100.00;60484.78;5013012;28;20098;-69
2021/11/04 02:26:51;;;;;;;30.60;8.73;;;;;;;-145.18;100.00;60484.78;5009955;28;20040;-69
2021/11/04 02:29:17;;;;;;;26.17;8.90;;;;;;;-145.18;100.00;60484.78;5009380;28;20065;-69
2021/11/04 02:31:45;;;;;;;29.47;9.20;;;;;;;-145.18;100.00;60484.78;5011655;28;20021;-69
2021/11/04 02:34:10;;;;;;;34.30;9.23;;;;;;;-145.18;100.00;60484.78;5010462;28;20091;-69
2021/11/04 02:36:39;;;;;;;36.97;9.53;;;;;;;-145.18;100.00;60484.78;5016188;28;20444;-69
2021/11/04 02:39:05;;;;;;;35.17;10.27;;;;;;;-145.18;100.00;60484.78;5012316;28;20112;-69
2021/11/04 02:41:31;;;;;;;32.17;9.37;;;;;;;-145.18;100.00;60484.78;5014629;28;20537;-69
2021/11/04 02:43:59;;;;;;;33.23;10.57;;;;;;;-145.18;100.00;60484.78;5015515;28;20616;-69
2021/11/04 02:46:25;;;;;;;35.67;10.27;;;;;;;-145.18;100.00;60484.78;5017530;28;20038;-69
2021/11/04 02:48:51;;;;;;;37.73;10.60;;;;;;;-145.18;100.00;60484.78;5040871;28;20176;-69
2021/11/04 02:51:17;;;;;;;33.80;10.63;;;;;;;-145.18;100.00;60484.78;5058834;28;20013;-69
2021/11/04 02:53:47;;;;;;;30.90;10.07;;;;;;;-145.18;100.00;60484.78;5060965;28;20077;-69
2021/11/04 02:56:13;;;;;;;33.40;10.03;;;;;;;-145.18;100.00;60484.78;5062084;28;20469;-69
2021/11/04 02:58:38;;;;;;;35.97;9.97;;;;;;;-145.18;100.00;60484.78;5058061;28;20488;-69
2021/11/04 03:01:04;;;;;;;33.20;10.70;;;;;;;-145.18;100.00;60484.78;5060324;28;20021;-70
2021/11/04 03:03:29;;;;;;;46.83;11.87;;;;;;;-145.18;100.00;60484.78;5060941;28;20512;-69
2021/11/04 03:05:56;;;;;;;41.60;11.30;;;;;;;-145.18;100.00;60484.78;5058878;28;20539;-70
2021/11/04 03:08:24;;;;;;;36.70;11.70;;;;;;;-145.18;100.00;60484.78;5058873;28;20058;-69
2021/11/04 03:10:50;;;;;;;41.77;12.43;;;;;;;-145.18;100.00;60484.78;5060003;28;20345;-70
2021/11/04 03:13:15;;;;;;;38.37;11.53;;;;;;;-145.18;100.00;60484.78;5061225;28;20390;-70
2021/11/04 03:15:45;;;;;;;41.37;13.03;;;;;;;-145.18;100.00;60484.78;5061905;28;20020;-69
2021/11/04 03:18:12;;;;;;;43.80;12.40;;;;;;;-145.18;100.00;60484.78;5060506;28;20037;-69
2021/11/04 03:20:38;;;;;;;40.67;12.20;;;;;;;-145.18;100.00;60484.78;5060768;28;20025;-69
2021/11/04 03:23:05;;;;;;;42.13;12.10;;;;;;;-145.18;100.00;60484.78;5041189;28;20520;-69
2021/11/04 03:25:31;;;;;;;44.90;12.17;;;;;;;-145.18;100.00;60484.78;5059255;28;20036;-70
2021/11/04 03:27:58;;;;;;;46.07;12.63;;;;;;;-145.18;100.00;60484.78;5059541;28;20520;-70
2021/11/04 03:30:25;;;;;;;48.47;12.67;;;;;;;-145.18;100.00;60484.78;5059993;28;20020;-70
2021/11/04 03:32:53;;;;;;;44.70;12.07;;;;;;;-145.18;100.00;60484.78;5060106;28;20032;-70
2021/11/04 03:35:19;;;;;;;52.63;12.60;;;;;;;-145.18;100.00;60484.78;5061250;28;20268;-70
2021/11/04 03:37:47;;;;;;;44.57;12.43;;;;;;;-145.18;100.00;60484.78;5060703;28;20032;-70
2021/11/04 03:40:15;;;;;;;48.30;13.00;;;;;;;-145.18;100.00;60484.78;5057266;28;20180;-70
2021/11/04 03:42:41;;;;;;;45.37;12.53;;;;;;;-145.18;100.00;60484.78;5060147;28;20298;-70
2021/11/04 03:45:08;;;;;;;44.80;12.70;;;;;;;-145.18;100.00;60484.78;5059371;28;20059;-70
2021/11/04 03:47:35;;;;;;;45.90;11.97;;;;;;;-145.18;100.00;60484.78;5058768;28;20251;-70
2021/11/04 03:50:02;;;;;;;41.60;11.10;;;;;;;-145.18;100.00;60484.78;5057466;28;20103;-70
2021/11/04 03:52:29;;;;;;;38.43;11.17;;;;;;;-145.18;100.00;60484.78;5060483;28;20039;-70
2021/11/04 03:54:55;;;;;;;41.97;11.23;;;;;;;-145.18;100.00;60484.78;5057926;28;20101;-70
2021/11/04 03:57:25;;;;;;;46.53;11.23;;;;;;;-145.18;100.00;60484.78;5054477;28;20550;-70
2021/11/04 03:59:52;;;;;;;40.07;11.23;;;;;;;-145.18;100.00;60484.78;5059007;28;20495;-70
2021/11/04 04:02:19;;;;;;;35.90;10.93;;;;;;;-145.18;100.00;60484.78;5056407;28;20032;-70
2021/11/04 04:04:55;;;;;;;51.23;12.23;;;;;;;-145.18;100.00;60484.78;5060166;28;20052;-70
2021/11/04 04:07:27;;;;;;;36.93;10.53;;;;;;;-145.18;100.00;60484.78;5060573;28;20052;-70
2021/11/04 04:09:53;;;;;;;45.10;11.70;;;;;;;-145.18;100.00;60484.78;5060296;28;20024;-70
2021/11/04 04:12:19;;;;;;;42.83;11.97;;;;;;;-145.18;100.00;60484.78;5059677;28;20033;-70
2021/11/04 04:14:44;;;;;;;42.87;11.60;;;;;;;-145.18;100.00;60484.78;5060500;28;20020;-70
2021/11/04 04:17:10;;;;;;;44.60;11.73;;;;;;;-145.18;100.00;60484.78;5060522;28;20258;-70
2021/11/04 04:19:35;;;;;;;44.80;11.33;;;;;;;-145.18;100.00;60484.78;5051654;28;20313;-70
2021/11/04 04:22:00;;;;;;;48.57;11.70;;;;;;;-145.18;100.00;60484.78;5058277;28;20024;-70
2021/11/04 04:24:26;;;;;;;48.30;12.80;;;;;;;-145.18;100.00;60484.78;5057769;28;20447;-70
2021/11/04 04:26:51;;;;;;;45.77;11.43;;;;;;;-145.18;100.00;60484.78;5060015;28;20109;-70
2021/11/04 04:29:17;;;;;;;49.83;13.07;;;;;;;-145.18;100.00;60484.78;5057307;28;20097;-70
2021/11/04 04:31:42;;;;;;;49.00;12.00;;;;;;;-145.18;100.00;60484.78;5058618;28;20012;-70
2021/11/04 04:34:08;;;;;;;46.63;12.40;;;;;;;-145.18;100.00;60484.78;5058842;28;20063;-70
2021/11/04 04:36:34;;;;;;;51.67;12.63;;;;;;;-145.18;100.00;60484.78;5058317;28;20340;-71
2021/11/04 04:38:59;;;;;;;47.67;12.77;;;;;;;-145.18;100.00;60484.78;5059761;28;20645;-70
2021/11/04 04:41:25;;;;;;;47.00;12.27;;;;;;;-145.18;100.00;60484.78;5059173;28;20271;-70
2021/11/04 04:43:50;;;;;;;49.53;13.07;;;;;;;-145.18;100.00;60484.78;5058913;28;20297;-70
2021/11/04 04:46:17;;;;;;;47.73;12.10;;;;;;;-145.18;100.00;60484.78;5053772;28;20483;-70
2021/11/04 04:48:42;;;;;;;51.07;13.23;;;;;;;-145.18;100.00;60484.78;5059330;28;20028;-70
2021/11/04 04:51:08;;;;;;;43.00;12.30;;;;;;;-145.18;100.00;60484.78;5056415;28;20031;-70
2021/11/04 04:53:34;;;;;;;41.97;11.20;;;;;;;-145.18;100.00;60484.78;5059262;28;20028;-70
2021/11/04 04:55:59;;;;;;;43.77;11.13;;;;;;;-145.18;100.00;60484.78;5054988;28;20024;-71
2021/11/04 04:58:24;;;;;;;46.33;11.57;;;;;;;-145.18;100.00;60484.78;5057989;28;20131;-70
2021/11/04 05:00:50;;;;;;;46.87;11.97;;;;;;;-145.18;100.00;60484.78;5059104;28;20556;-70
2021/11/04 05:03:15;;;;;;;40.20;10.53;;;;;;;-145.18;100.00;60484.78;5058868;28;20025;-70
2021/11/04 05:05:41;;;;;;;37.53;10.50;;;;;;;-145.18;100.00;60484.78;5058747;28;20272;-71
2021/11/04 05:08:06;;;;;;;47.00;12.13;;;;;;;-145.18;100.00;60484.78;5059307;28;20031;-70
2021/11/04 05:10:32;;;;;;;44.10;10.90;;;;;;;-145.18;100.00;60484.78;5056168;28;20021;-70
2021/11/04 05:12:57;;;;;;;40.27;10.97;;;;;;;-145.18;100.00;60484.78;5056933;28;20236;-70
2021/11/04 05:15:23;;;;;;;36.57;9.90;;;;;;;-145.18;100.00;60484.78;5049893;28;20036;-70
2021/11/04 05:17:48;;;;;;;39.73;10.67;;;;;;;-145.18;100.00;60484.78;5055372;28;20202;-70
2021/11/04 05:20:14;;;;;;;42.23;10.70;;;;;;;-145.18;100.00;60484.78;5059086;28;20036;-70
2021/11/04 05:22:39;;;;;;;37.30;10.23;;;;;;;-145.18;100.00;60484.78;5057495;28;20325;-70
2021/11/04 05:25:05;;;;;;;41.00;10.23;;;;;;;-145.18;100.00;60484.78;5057438;28;20058;-70
2021/11/04 05:27:31;;;;;;;36.57;11.07;;;;;;;-145.18;100.00;60484.78;5055829;28;20051;-70
2021/11/04 05:29:56;;;;;;;36.33;10.47;;;;;;;-145.18;100.00;60484.78;5057934;28;20024;-71
2021/11/04 05:32:22;;;;;;;37.53;10.97;;;;;;;-145.18;100.00;60484.78;5058257;28;20105;-71
2021/11/04 05:34:48;;;;;;;38.17;9.67;;;;;;;-145.18;100.00;60484.78;5036231;28;20305;-71
2021/11/04 05:37:13;;;;;;;37.67;9.83;;;;;;;-145.18;100.00;60484.78;5057451;28;20519;-71
2021/11/04 05:39:39;;;;;;;42.30;10.40;;;;;;;-145.18;100.00;60484.78;5055360;28;20169;-71
2021/11/04 05:42:06;;;;;;;34.73;9.87;;;;;;;-145.18;100.00;60484.78;5058858;28;20146;-70
2021/11/04 05:44:32;;;;;;;35.80;9.67;;;;;;;-145.18;100.00;60484.78;5058455;28;20024;-71
2021/11/04 05:46:58;;;;;;;40.40;9.97;;;;;;;-145.18;100.00;60484.78;5058572;28;20514;-71
2021/11/04 05:49:23;;;;;;;36.47;9.97;;;;;;;-145.18;100.00;60484.78;5054592;28;20508;-71
2021/11/04 05:51:49;;;;;;;39.40;9.93;;;;;;;-145.18;100.00;60484.78;5055444;28;20183;-71
2021/11/04 05:54:14;;;;;;;41.27;10.83;;;;;;;-145.18;100.00;60484.78;5057872;28;20209;-71
2021/11/04 05:56:40;;;;;;;35.23;9.50;;;;;;;-145.18;100.00;60484.78;5055487;28;20480;-71
2021/11/04 05:59:06;;;;;;;34.50;9.53;;;;;;;-145.18;100.00;60484.78;5057367;28;20016;-71
2021/11/04 06:01:32;;;;;;;36.80;10.47;;;;;;;-145.18;100.00;60484.78;5054658;28;20029;-71
2021/11/04 06:03:57;;;;;;;39.27;10.27;;;;;;;-145.18;100.00;60484.78;5053903;28;20109;-71
2021/11/04 06:06:23;;;;;;;37.77;10.93;;;;;;;-145.18;100.00;60484.78;5055672;28;20623;-71
2021/11/04 06:08:48;;;;;;;34.73;10.00;;;;;;;-145.18;100.00;60484.78;5055246;28;20028;-71
2021/11/04 06:11:15;;;;;;;39.90;10.50;;;;;;;-145.18;100.00;60484.78;5056841;28;20483;-70
2021/11/04 06:13:41;;;;;;;42.07;10.53;;;;;;;-145.18;100.00;60484.78;5058735;28;20058;-71
2021/11/04 06:16:12;;;;;;;33.07;10.17;;;;;;;-145.18;100.00;60484.78;5058696;28;20263;-71
2021/11/04 06:18:38;;;;;;;38.95;10.43;;;;;;;-145.18;100.00;60484.78;5058415;28;20322;-71
2021/11/04 06:21:04;;;;;;;36.93;11.03;;;;;;;-145.18;100.00;60484.78;5058621;28;20040;-71
2021/11/04 06:23:29;;;;;;;38.17;10.93;;;;;;;-145.18;100.00;60484.78;5058068;28;20029;-70
2021/11/04 06:25:55;;;;;;;36.10;10.43;;;;;;;-145.18;100.00;60484.78;5058248;28;20123;-71
2021/11/04 06:28:20;;;;;;;38.67;10.93;;;;;;;-145.18;100.00;60484.78;5058137;28;20342;-71
2021/11/04 06:30:45;;;;;;;50.30;11.20;;;;;;;-145.18;100.00;60484.78;5056359;28;20078;-71
2021/11/04 06:33:11;;;;;;;37.80;10.90;;;;;;;-145.18;100.00;60484.78;5048035;28;20024;-70
2021/11/04 06:35:36;;;;;;;47.47;11.70;;;;;;;-145.18;100.00;60484.78;5055362;28;20406;-70
2021/11/04 06:38:02;;;;;;;43.43;10.73;;;;;;;-145.18;100.00;60484.78;5043016;28;20307;-70
2021/11/04 06:40:27;;;;;;;43.07;11.00;;;;;;;-145.18;100.00;60484.78;5054097;28;20041;-71
2021/11/04 06:42:54;;;;;;;49.67;11.23;;;;;;;-145.18;100.00;60484.78;5051653;28;20036;-71
2021/11/04 06:45:19;;;;;;;45.30;12.17;;;;;;;-145.18;100.00;60484.78;5052732;28;20066;-71
2021/11/04 06:47:53;;;;;;;50.43;11.53;;;;;;;-145.18;100.00;60484.78;5054707;28;20498;-71
2021/11/04 06:50:23;;;;;;;53.13;12.60;;;;;;;-145.18;100.00;60484.78;5052414;28;20103;-70
2021/11/04 06:53:08;;;;;;;52.27;12.23;;;;;;;-145.18;100.00;60484.78;5054527;28;20488;-71
2021/11/04 06:55:43;;;;;;;47.00;12.33;;;;;;;-145.18;100.00;60484.78;5053945;28;20821;-72
2021/11/04 06:58:14;;;;;;;59.97;12.60;;;;;;;-145.18;100.00;60484.78;5054618;28;20262;-70
2021/11/04 07:00:46;;;;;;;52.83;12.90;;;;;;;-145.18;100.00;60484.78;5046717;28;20180;-69
2021/11/04 07:03:22;;;;;;;55.97;14.47;;;;;;;-145.18;100.00;60484.78;5050260;28;20043;-70
2021/11/04 07:05:47;;;;;;;58.97;13.67;;;;;;;-145.18;100.00;60484.78;5042737;28;20037;-70
2021/11/04 07:08:23;;;;;;;53.43;11.80;;;;;;;-145.18;100.00;60484.78;5054568;28;20059;-70
2021/11/04 07:10:49;;;;;;;50.17;11.73;;;;;;;-145.18;100.00;60484.78;5051994;28;20039;-70
2021/11/04 07:13:14;;;;;;;58.53;12.40;;;;;;;-145.18;100.00;60484.78;5054880;28;20028;-69
2021/11/04 07:15:42;;;;;;;49.10;12.17;;;;;;;-145.18;100.00;60484.78;5047926;28;20078;-69
2021/11/04 07:18:09;;;;;;;54.20;12.20;;;;;;;-145.18;100.00;60484.78;5053100;28;20048;-69
2021/11/04 07:20:36;;;;;;;52.73;12.07;;;;;;;-145.18;100.00;60484.78;5029933;28;20436;-70
2021/11/04 07:23:02;;;;;;;44.97;11.67;;;;;;;-145.18;100.00;60484.78;5050996;28;20104;-69
2021/11/04 07:25:29;;;;;;;54.63;12.43;;;;;;;-145.18;100.00;60484.78;5054395;28;20104;-69
2021/11/04 07:28:04;;;;;;;48.57;12.03;;;;;;;-145.18;100.00;60484.78;5056782;28;20111;-70
2021/11/04 07:30:30;;;;;;;47.73;12.43;;;;;;;-145.18;100.00;60484.78;5046862;28;20270;-70
2021/11/04 07:33:04;;;;;;;44.33;11.70;;;;;;;-145.18;100.00;60484.78;5055756;28;20033;-70
2021/11/04 07:35:35;;;;;;;47.27;12.63;;;;;;;-145.18;100.00;60484.78;5056867;28;20020;-69
2021/11/04 07:38:01;;;;;;;45.23;11.20;;;;;;;-145.18;100.00;60484.78;5056663;28;20048;-69
2021/11/04 07:40:29;;;;;;;43.77;11.50;;;;;;;-145.18;100.00;60484.78;5057489;28;20137;-69
2021/11/04 07:42:56;;;;;;;42.00;11.40;;;;;;;-145.18;100.00;60484.78;5055003;28;20420;-69
2021/11/04 07:45:23;;;;;;;52.43;12.30;;;;;;;-145.18;100.00;60484.78;5051662;28;20029;-70
2021/11/04 07:47:49;;;;;;;43.50;11.93;;;;;;;-145.18;100.00;60484.78;5056095;28;20760;-70
2021/11/04 07:50:18;;;;;;;40.83;11.10;;;;;;;-145.18;100.00;60484.78;5057680;28;20020;-70
2021/11/04 07:52:44;;;;;;;46.63;12.03;;;;;;;-145.18;100.00;60484.78;5057558;28;20098;-69
2021/11/04 07:55:10;;;;;;;42.60;10.83;;;;;;;-145.18;100.00;60484.78;5049926;28;20020;-69
2021/11/04 07:57:38;;;;;;;39.30;11.70;;;;;;;-145.18;100.00;60484.78;5056040;28;20146;-70
2021/11/04 08:00:09;;;;;;;43.23;11.63;;;;;;;-145.18;100.00;60484.78;5055816;28;20266;-70
2021/11/04 08:02:35;;;;;;;45.83;12.33;;;;;;;-145.18;100.00;60484.78;5057865;28;20157;-70
2021/11/04 08:05:01;;;;;;;40.37;11.10;;;;;;;-145.18;100.00;60484.78;5050721;28;20603;-70
2021/11/04 08:07:32;;;;;;;41.60;11.20;;;;;;;-145.18;100.00;60484.78;5054422;28;20115;-70
2021/11/04 08:09:58;;;;;;;46.95;10.70;;;;;;;-145.18;100.00;60484.78;5056161;28;20202;-70
2021/11/04 08:12:24;;;;;;;43.03;11.00;;;;;;;-145.18;100.00;60484.78;5038362;28;20032;-70
2021/11/04 08:14:50;;;;;;;44.47;12.43;;;;;;;-145.18;100.00;60484.78;5033746;28;20630;-70
2021/11/04 08:17:16;;;;;;;44.27;12.27;;;;;;;-145.18;100.00;60484.78;5055725;28;20192;-70
2021/11/04 08:19:41;;;;;;;47.73;11.93;;;;;;;-145.18;100.00;60484.78;5053796;28;20082;-70
2021/11/04 08:22:07;;;;;;;38.03;11.37;;;;;;;-145.18;100.00;60484.78;5057543;28;20872;-70
2021/11/04 08:24:33;;;;;;;41.77;11.90;;;;;;;-145.18;100.00;60484.78;5057194;28;20401;-70
2021/11/04 08:26:58;;;;;;;39.57;11.50;;;;;;;-145.18;100.00;60484.78;5031938;28;20373;-70
2021/11/04 08:29:24;;;;;;;39.80;12.17;;;;;;;-145.18;100.00;60484.78;5056723;28;20521;-70
2021/11/04 08:31:49;;;;;;;41.93;11.67;;;;;;;-145.18;100.00;60484.78;5055568;28;20017;-70
2021/11/04 08:34:15;;;;;;;42.50;12.77;;;;;;;-145.18;100.00;60484.78;5047912;28;20035;-70
2021/11/04 08:36:40;;;;;;;41.20;11.53;;;;;;;-145.18;100.00;60484.78;5035121;28;20306;-70
2021/11/04 08:39:06;;;;;;;40.10;12.63;;;;;;;-145.18;100.00;60484.78;5053318;28;20115;-70
2021/11/04 08:41:32;;;;;;;44.53;12.33;;;;;;;-145.18;100.00;60484.78;5053589;28;20028;-70
2021/11/04 08:43:57;;;;;;;44.20;12.47;;;;;;;-145.18;100.00;60484.78;5051304;28;20097;-70
2021/11/04 08:46:23;;;;;;;40.83;11.97;;;;;;;-145.18;100.00;60484.78;5056394;28;20058;-70
2021/11/04 08:48:48;;;;;;;42.87;11.90;;;;;;;-145.18;100.00;60484.78;5057081;28;20492;-70
2021/11/04 08:51:15;;;;;;;41.27;11.50;;;;;;;-145.18;100.00;60484.78;5056309;28;20016;-70
2021/11/04 08:53:41;;;;;;;39.83;11.97;;;;;;;-145.18;100.00;60484.78;5055761;28;20131;-70
2021/11/04 08:56:08;;;;;;;38.50;11.53;;;;;;;-145.18;100.00;60484.78;5054725;28;20056;-70
2021/11/04 08:58:33;;;;;;;39.10;11.47;;;;;;;-145.18;100.00;60484.78;5056527;28;20027;-70
2021/11/04 09:00:59;;;;;;;37.20;11.17;;;;;;;-145.18;100.00;60484.78;5056439;28;20028;-70
2021/11/04 09:03:25;;;;;;;34.60;11.27;;;;;;;-145.18;100.00;60484.78;5055766;28;20086;-70
2021/11/04 09:05:51;;;;;;;34.83;11.23;;;;;;;-145.18;100.00;60484.78;5056728;28;20535;-72
2021/11/04 09:08:16;;;;;;;37.00;11.87;;;;;;;-145.18;100.00;60484.78;5056029;28;20443;-71
2021/11/04 09:10:42;;;;;;;36.93;11.53;;;;;;;-145.18;100.00;60484.78;5055985;28;20024;-72
2021/11/04 09:13:08;;;;;;;37.30;12.37;;;;;;;-145.18;100.00;60484.78;5055829;28;20462;-70
2021/11/04 09:15:35;;;;;;;37.40;12.83;;;;;;;-145.18;100.00;60484.78;5045329;28;20281;-70
2021/11/04 09:18:01;;;;;;;36.07;12.23;;;;;;;-145.18;100.00;60484.78;5056087;28;20043;-70
2021/11/04 09:20:27;;;;;;;39.37;12.87;;;;;;;-145.18;100.00;60484.78;5055636;28;20381;-70
2021/11/04 09:22:52;;;;;;;34.20;11.73;;;;;;;-145.18;100.00;60484.78;5055902;28;20150;-70
2021/11/04 09:25:22;;;;;;;36.87;12.70;;;;;;;-145.18;100.00;60484.78;5055253;28;20515;-70
2021/11/04 09:27:49;;;;;;;35.07;12.07;;;;;;;-145.18;100.00;60484.78;5056220;28;20186;-70
2021/11/04 09:30:16;;;;;;;36.90;11.40;;;;;;;-145.18;100.00;60484.78;5053980;28;20834;-70
2021/11/04 09:32:44;;;;;;;36.57;12.27;;;;;;;-145.18;100.00;60484.78;5055098;28;20036;-70
2021/11/04 09:35:10;;;;;;;36.83;12.13;;;;;;;-145.18;100.00;60484.78;5054689;28;20028;-70
2021/11/04 09:37:35;;;;;;;36.47;12.97;;;;;;;-145.18;100.00;60484.78;5054859;28;20073;-69
2021/11/04 09:40:04;;;;;;;36.87;12.53;;;;;;;-145.18;100.00;60484.78;5054866;28;20037;-70
2021/11/04 09:42:29;;;;;;;39.70;12.47;;;;;;;-145.18;100.00;60484.78;5054766;28;20037;-70
2021/11/04 09:44:55;;;;;;;41.03;12.97;;;;;;;-145.18;100.00;60484.78;5053792;28;20283;-70
2021/11/04 09:47:26;;;;;;;37.37;12.50;;;;;;;-145.18;100.00;60484.78;5054275;28;20085;-70
2021/11/04 09:49:53;;;;;;;41.23;13.30;;;;;;;-145.18;100.00;60484.78;5055430;28;20338;-70
2021/11/04 09:52:30;;;;;;;34.17;11.57;;;;;;;-145.18;100.00;60484.78;5053895;28;20176;-69
2021/11/04 09:54:56;;;;;;;32.53;11.57;;;;;;;-145.18;100.00;60484.78;5051984;28;20435;-70
2021/11/04 09:57:23;;;;;;;31.50;11.20;;;;;;;-145.18;100.00;60484.78;5055147;28;20074;-70
2021/11/04 09:59:48;;;;;;;38.37;13.30;;;;;;;-145.18;100.00;60484.78;5053255;28;20461;-70
2021/11/04 10:02:22;;;;;;;32.43;11.10;;;;;;;-145.18;100.00;60484.78;5053897;28;20037;-70
2021/11/04 10:04:48;;;;;;;31.60;11.40;;;;;;;-145.18;100.00;60484.78;5053399;28;20253;-72
2021/11/04 10:07:15;;;;;;;31.67;10.83;;;;;;;-145.18;100.00;60484.78;5053766;28;20047;-70
2021/11/04 10:09:42;;;;;;;38.10;12.57;;;;;;;-145.18;100.00;60484.78;5054349;28;20401;-70
2021/11/04 10:12:12;;;;;;;31.23;11.17;;;;;;;-145.18;100.00;60484.78;5055160;28;20037;-70
2021/11/04 10:14:39;;;;;;;31.67;10.53;;;;;;;-145.18;100.00;60484.78;5054496;28;20397;-70
2021/11/04 10:17:23;;;;;;;30.77;11.27;;;;;;;-145.18;100.00;60484.78;5054430;28;20063;-70
2021/11/04 10:19:48;;;;;;;31.37;10.40;;;;;;;-145.18;100.00;60484.78;5053717;28;20660;-70
2021/11/04 10:22:23;;;;;;;33.57;10.90;;;;;;;-145.18;100.00;60484.78;5055271;28;20032;-70
2021/11/04 10:24:49;;;;;;;34.97;12.17;;;;;;;-145.18;100.00;60484.78;5054038;28;20097;-70
2021/11/04 10:27:35;;;;;;;32.70;11.07;;;;;;;-145.18;100.00;60484.78;5055443;28;20074;-70
2021/11/04 10:30:03;;;;;;;29.57;11.60;;;;;;;-145.18;100.00;60484.78;5054315;28;20099;-70
2021/11/04 10:32:36;;;;;;;34.27;11.60;;;;;;;-145.18;100.00;60484.78;5053273;28;20036;-70
2021/11/04 10:35:09;;;;;;;28.17;10.80;;;;;;;-145.18;100.00;60484.78;5052044;28;20036;-70
2021/11/04 10:37:44;;;;;;;30.33;11.23;;;;;;;-145.18;100.00;60484.78;5054221;28;20155;-69
2021/11/04 10:40:19;;;;;;;27.00;10.37;;;;;;;-145.18;100.00;60484.78;5048358;28;20393;-70
2021/11/04 10:42:55;;;;;;;26.50;10.20;;;;;;;-145.18;100.00;60484.78;5054894;28;20040;-70
2021/11/04 10:45:26;;;;;;;21.87;8.83;;;;;;;-145.18;100.00;60484.78;5054336;28;20039;-70
2021/11/04 10:48:16;;;;;;;21.40;8.82;;;;;;;-145.18;100.00;60484.78;5054905;28;20471;-70
2021/11/04 10:50:43;;;;;;;23.70;9.33;;;;;;;-145.18;100.00;60484.78;5029446;28;20032;-70
2021/11/04 10:53:10;;;;;;;22.97;9.13;;;;;;;-145.18;100.00;60484.78;5054889;28;20028;-70
2021/11/04 10:55:35;;;;;;;29.77;11.73;;;;;;;-145.18;100.00;60484.78;5056342;28;20036;-70
2021/11/04 10:58:07;;;;;;;19.77;8.37;;;;;;;-145.18;100.00;60484.78;5056096;28;20032;-70